createdAt,value
2023-02-22T00:02:11.250Z,15.63
2023-02-22T00:04:39.872Z,17.10
2023-02-22T00:07:07.957Z,13.10
2023-02-22T00:09:35.055Z,13.23
2023-02-22T00:12:02.419Z,11.97
2023-02-22T00:14:29.545Z,14.47
2023-02-22T00:16:59.773Z,15.27
2023-02-22T00:19:28.261Z,13.87
2023-02-22T00:21:55.557Z,13.60
2023-02-22T00:24:25.650Z,14.07
2023-02-22T00:26:55.831Z,16.10
2023-02-22T00:29:26.366Z,14.30
2023-02-22T00:31:54.244Z,16.90
2023-02-22T00:34:23.576Z,14.93
2023-02-22T00:36:50.802Z,14.43
2023-02-22T00:39:18.434Z,14.77
2023-02-22T00:41:45.624Z,14.43
2023-02-22T00:44:13.045Z,18.43
2023-02-22T00:46:40.263Z,16.27
2023-02-22T00:49:07.632Z,14.67
2023-02-22T00:51:34.919Z,12.87
2023-02-22T00:54:02.243Z,13.70
2023-02-22T00:56:29.334Z,15.30
2023-02-22T00:58:56.448Z,14.70
2023-02-22T01:01:24.439Z,13.33
2023-02-22T01:03:51.805Z,11.47
2023-02-22T01:06:19.653Z,12.90
2023-02-22T01:08:48.073Z,14.37
2023-02-22T01:11:17.091Z,17.57
2023-02-22T01:13:45.528Z,17.33
2023-02-22T01:16:12.995Z,14.73
2023-02-22T01:18:40.390Z,16.97
2023-02-22T01:21:08.735Z,17.70
2023-02-22T01:23:35.859Z,16.13
2023-02-22T01:26:06.226Z,14.57
2023-02-22T01:28:34.443Z,15.20
2023-02-22T01:31:03.433Z,17.40
2023-02-22T01:33:31.471Z,15.03
2023-02-22T01:35:59.843Z,15.90
2023-02-22T01:38:27.875Z,15.87
2023-02-22T01:40:55.207Z,17.20
2023-02-22T01:43:29.947Z,16.70
2023-02-22T01:46:02.118Z,17.20
2023-02-22T01:48:41.752Z,16.93
2023-02-22T01:51:28.584Z,16.93
2023-02-22T01:54:00.389Z,16.03
2023-02-22T01:56:29.889Z,17.90
2023-02-22T01:59:02.335Z,16.90
2023-02-22T02:01:30.533Z,15.97
2023-02-22T02:04:00.384Z,17.63
2023-02-22T02:06:31.490Z,18.00
2023-02-22T02:09:44.929Z,18.43
2023-02-22T02:12:14.336Z,16.63
2023-02-22T02:14:44.088Z,16.30
2023-02-22T02:17:15.506Z,14.97
2023-02-22T02:20:07.321Z,17.27
2023-02-22T02:22:46.513Z,16.03
2023-02-22T02:25:35.124Z,15.13
2023-02-22T02:28:40.912Z,15.80
2023-02-22T02:31:39.486Z,13.90
2023-02-22T02:34:29.763Z,13.83
2023-02-22T02:37:15.572Z,16.47
2023-02-22T02:39:56.838Z,18.67
2023-02-22T02:42:33.716Z,16.90
2023-02-22T02:45:12.623Z,18.13
2023-02-22T02:47:48.233Z,15.27
2023-02-22T02:50:27.842Z,15.50
2023-02-22T02:52:58.961Z,15.90
2023-02-22T02:55:30.723Z,16.40
2023-02-22T02:57:57.809Z,15.27
2023-02-22T03:00:29.957Z,14.77
2023-02-22T03:03:24.111Z,16.47
2023-02-22T03:06:09.462Z,17.03
2023-02-22T03:08:56.542Z,16.67
2023-02-22T03:14:16.185Z,14.90
2023-02-22T03:17:04.968Z,16.00
2023-02-22T03:19:39.792Z,15.87
2023-02-22T03:22:09.210Z,15.47
2023-02-22T03:24:54.889Z,17.53
2023-02-22T03:27:29.144Z,15.83
2023-02-22T03:30:05.093Z,14.47
2023-02-22T03:32:38.578Z,15.70
2023-02-22T03:35:14.120Z,16.97
2023-02-22T03:37:47.214Z,15.50
2023-02-22T03:40:26.264Z,17.17
2023-02-22T03:43:06.914Z,17.37
2023-02-22T03:45:40.889Z,16.50
2023-02-22T03:48:27.787Z,16.13
2023-02-22T03:50:55.182Z,15.27
2023-02-22T03:53:23.420Z,15.50
2023-02-22T03:55:55.790Z,18.33
2023-02-22T03:58:28.091Z,16.67
2023-02-22T04:00:55.928Z,17.70
2023-02-22T04:03:24.041Z,16.70
2023-02-22T04:05:52.874Z,16.50
2023-02-22T04:08:21.438Z,14.77
2023-02-22T04:10:48.788Z,17.07
2023-02-22T04:13:18.709Z,14.97
2023-02-22T04:15:48.544Z,13.37
2023-02-22T04:18:16.510Z,14.37
2023-02-22T04:20:46.269Z,13.50
2023-02-22T04:23:21.544Z,14.57
2023-02-22T04:25:49.382Z,15.77
2023-02-22T04:28:19.783Z,14.47
2023-02-22T04:30:52.807Z,16.80
2023-02-22T04:33:20.439Z,14.90
2023-02-22T04:35:47.797Z,15.53
2023-02-22T04:38:15.531Z,14.73
2023-02-22T04:40:42.662Z,13.87
2023-02-22T04:43:09.956Z,15.53
2023-02-22T04:45:37.285Z,16.20
2023-02-22T04:48:06.238Z,15.30
2023-02-22T04:50:33.521Z,12.20
2023-02-22T04:53:00.664Z,13.10
2023-02-22T04:55:30.548Z,15.23
2023-02-22T04:57:58.060Z,15.57
2023-02-22T05:00:25.536Z,14.77
2023-02-22T05:02:57.335Z,14.03
2023-02-22T05:05:24.640Z,15.90
2023-02-22T05:07:52.014Z,12.80
2023-02-22T05:10:20.059Z,16.07
2023-02-22T05:12:47.341Z,13.53
2023-02-22T05:15:20.445Z,15.13
2023-02-22T05:17:48.301Z,13.40
2023-02-22T05:20:28.955Z,13.90
2023-02-22T05:23:00.591Z,12.73
2023-02-22T05:25:28.492Z,12.67
2023-02-22T05:27:58.111Z,16.73
2023-02-22T05:30:30.611Z,16.03
2023-02-22T05:32:59.554Z,12.47
2023-02-22T05:35:27.819Z,14.87
2023-02-22T05:37:55.555Z,15.63
2023-02-22T05:40:25.527Z,15.67
2023-02-22T05:42:53.800Z,13.07
2023-02-22T05:45:23.169Z,15.70
2023-02-22T05:47:50.898Z,16.03
2023-02-22T05:50:19.915Z,13.37
2023-02-22T05:52:49.033Z,15.47
2023-02-22T05:55:19.006Z,16.03
2023-02-22T05:57:47.182Z,14.87
2023-02-22T06:00:23.406Z,12.60
2023-02-22T06:03:00.101Z,13.95
2023-02-22T06:05:30.477Z,14.80
2023-02-22T06:07:58.979Z,12.27
2023-02-22T06:10:27.294Z,15.57
2023-02-22T06:12:55.124Z,13.63
2023-02-22T06:15:24.132Z,13.57
2023-02-22T06:17:51.840Z,13.87
2023-02-22T06:20:22.836Z,15.77
2023-02-22T06:22:54.211Z,16.60
2023-02-22T06:25:24.520Z,13.43
2023-02-22T06:27:51.726Z,13.50
2023-02-22T06:30:21.538Z,13.73
2023-02-22T06:32:48.737Z,15.83
2023-02-22T06:35:16.897Z,13.27
2023-02-22T06:37:44.026Z,13.20
2023-02-22T06:40:11.637Z,15.43
2023-02-22T06:42:39.511Z,13.03
2023-02-22T06:45:07.622Z,13.20
2023-02-22T06:47:39.787Z,12.37
2023-02-22T06:50:08.089Z,12.90
2023-02-22T06:52:35.247Z,12.53
2023-02-22T06:55:02.383Z,12.20
2023-02-22T06:57:30.454Z,14.67
2023-02-22T06:59:57.585Z,14.23
2023-02-22T07:02:24.763Z,11.93
2023-02-22T07:04:51.908Z,13.60
2023-02-22T07:07:19.008Z,12.80
2023-02-22T07:09:48.034Z,12.53
2023-02-22T07:12:15.165Z,16.10
2023-02-22T07:14:42.901Z,13.87
2023-02-22T07:17:10.133Z,13.30
2023-02-22T07:19:37.184Z,12.13
2023-02-22T07:22:04.326Z,13.00
2023-02-22T07:24:31.492Z,13.17
2023-02-22T07:27:02.053Z,11.93
2023-02-22T07:29:29.276Z,12.00
2023-02-22T07:31:57.852Z,13.37
2023-02-22T07:34:25.017Z,13.13
2023-02-22T07:36:52.155Z,11.67
2023-02-22T07:39:19.381Z,13.37
2023-02-22T07:41:46.684Z,13.17
2023-02-22T07:44:24.024Z,14.60
2023-02-22T07:46:51.098Z,12.63
2023-02-22T07:49:18.661Z,11.60
2023-02-22T07:51:45.956Z,11.30
2023-02-22T07:54:13.154Z,10.20
2023-02-22T07:56:49.556Z,11.43
2023-02-22T07:59:16.913Z,10.93
2023-02-22T08:01:44.451Z,12.07
2023-02-22T08:04:11.633Z,13.73
2023-02-22T08:06:38.898Z,12.23
2023-02-22T08:09:06.148Z,14.87
2023-02-22T08:11:33.455Z,11.37
2023-02-22T08:14:00.656Z,10.10
2023-02-22T08:16:28.018Z,11.80
2023-02-22T08:18:55.226Z,11.20
2023-02-22T08:21:22.431Z,11.87
2023-02-22T08:23:54.555Z,10.53
2023-02-22T08:26:21.759Z,13.90
2023-02-22T08:28:49.098Z,11.50
2023-02-22T08:31:16.555Z,12.60
2023-02-22T08:33:47.132Z,11.70
2023-02-22T08:36:14.232Z,11.63
2023-02-22T08:38:41.591Z,13.23
2023-02-22T08:41:11.306Z,12.68
2023-02-22T08:43:38.506Z,11.13
2023-02-22T08:46:05.660Z,13.85
2023-02-22T08:48:32.881Z,12.90
2023-02-22T08:51:00.101Z,13.40
2023-02-22T08:53:27.365Z,12.90
2023-02-22T08:55:56.877Z,13.15
2023-02-22T08:58:23.964Z,12.98
2023-02-22T09:00:51.174Z,11.43
2023-02-22T09:03:18.504Z,13.27
2023-02-22T09:05:45.789Z,13.73
2023-02-22T09:08:13.106Z,14.00
2023-02-22T09:10:40.895Z,14.85
2023-02-22T09:13:08.142Z,14.35
2023-02-22T09:15:36.550Z,14.05
2023-02-22T09:18:05.817Z,13.98
2023-02-22T09:20:32.902Z,14.20
2023-02-22T09:23:03.614Z,14.18
2023-02-22T09:25:31.097Z,13.77
2023-02-22T09:27:58.530Z,12.85
2023-02-22T09:30:34.396Z,15.98
2023-02-22T09:33:04.449Z,12.80
2023-02-22T09:35:31.865Z,12.25
2023-02-22T09:38:00.542Z,14.75
2023-02-22T09:40:31.040Z,14.25
2023-02-22T09:43:27.838Z,11.60
2023-02-22T09:46:13.718Z,15.35
2023-02-22T09:49:02.508Z,12.10
2023-02-22T09:51:38.052Z,12.32
2023-02-22T09:54:14.784Z,12.20
2023-02-22T09:56:44.342Z,14.05
2023-02-22T09:59:15.783Z,12.52
2023-02-22T10:01:50.317Z,13.52
2023-02-22T10:04:38.872Z,13.80
2023-02-22T10:07:18.496Z,12.02
2023-02-22T10:09:48.594Z,12.65
2023-02-22T10:12:30.347Z,12.13
2023-02-22T10:15:42.609Z,11.27
2023-02-22T10:18:31.215Z,11.18
2023-02-22T10:21:14.563Z,12.52
2023-02-22T10:24:17.258Z,11.60
2023-02-22T10:26:47.081Z,11.80
2023-02-22T10:29:29.830Z,11.20
2023-02-22T10:32:00.766Z,11.33
2023-02-22T10:34:36.643Z,11.67
2023-02-22T10:37:34.825Z,12.97
2023-02-22T10:40:23.143Z,13.90
2023-02-22T10:42:50.909Z,13.13
2023-02-22T10:45:30.073Z,10.27
2023-02-22T10:47:59.877Z,8.87
2023-02-22T10:50:31.257Z,11.30
2023-02-22T10:52:58.400Z,11.00
2023-02-22T10:55:25.860Z,11.77
2023-02-22T10:58:02.367Z,11.23
2023-02-22T11:00:33.301Z,11.48
2023-02-22T11:03:03.009Z,10.63
2023-02-22T11:05:37.021Z,10.90
2023-02-22T11:08:16.250Z,10.77
2023-02-22T11:10:43.644Z,10.40
2023-02-22T11:13:33.702Z,11.13
2023-02-22T11:16:17.568Z,9.30
2023-02-22T11:18:44.793Z,11.23
2023-02-22T11:21:14.163Z,9.63
2023-02-22T11:23:45.077Z,10.47
2023-02-22T11:26:17.693Z,9.30
2023-02-22T11:28:49.824Z,10.27
2023-02-22T11:31:21.129Z,11.00
2023-02-22T11:34:00.063Z,9.37
2023-02-22T11:36:40.623Z,9.23
2023-02-22T11:39:27.228Z,10.13
2023-02-22T11:41:56.753Z,11.47
2023-02-22T11:44:28.876Z,10.57
2023-02-22T11:47:01.699Z,9.93
2023-02-22T11:49:38.599Z,9.93
2023-02-22T11:55:43.148Z,10.05
2023-02-22T11:58:45.876Z,9.63
2023-02-22T12:01:51.626Z,9.20
2023-02-22T12:04:55.840Z,10.83
2023-02-22T12:07:56.851Z,8.23
2023-02-22T12:10:55.620Z,9.67
2023-02-22T12:13:37.780Z,8.70
2023-02-22T12:16:27.193Z,8.67
2023-02-22T12:19:10.473Z,9.33
2023-02-22T12:21:42.944Z,8.33
2023-02-22T12:24:16.629Z,9.53
2023-02-22T12:26:59.019Z,9.93
2023-02-22T12:29:47.448Z,9.90
2023-02-22T12:32:33.512Z,11.70
2023-02-22T12:35:26.765Z,9.67
2023-02-22T12:38:04.992Z,10.50
2023-02-22T12:41:01.831Z,9.23
2023-02-22T12:43:36.664Z,7.97
2023-02-22T12:46:13.874Z,8.33
2023-02-22T12:48:48.112Z,7.70
2023-02-22T12:51:31.928Z,10.23
2023-02-22T12:54:02.049Z,11.77
2023-02-22T12:56:36.601Z,10.13
2023-02-22T12:59:15.478Z,10.10
2023-02-22T13:01:46.688Z,9.63
2023-02-22T13:04:20.924Z,8.57
2023-02-22T13:07:06.075Z,9.03
2023-02-22T13:10:18.983Z,8.43
2023-02-22T13:13:15.675Z,7.90
2023-02-22T13:15:57.831Z,7.80
2023-02-22T13:18:48.903Z,8.63
2023-02-22T13:21:34.450Z,9.37
2023-02-22T13:24:16.127Z,7.07
2023-02-22T13:26:52.308Z,7.47
2023-02-22T13:29:38.022Z,7.95
2023-02-22T13:32:20.949Z,8.83
2023-02-22T13:35:20.391Z,8.40
2023-02-22T13:37:56.497Z,7.30
2023-02-22T13:40:50.078Z,7.35
2023-02-22T13:43:43.777Z,7.70
2023-02-22T13:46:44.990Z,8.10
2023-02-22T13:49:39.849Z,7.10
2023-02-22T13:52:12.517Z,7.73
2023-02-22T13:54:48.739Z,7.57
2023-02-22T13:57:37.059Z,6.85
2023-02-22T14:00:16.637Z,6.87
2023-02-22T14:03:27.086Z,7.80
2023-02-22T14:05:57.376Z,8.17
2023-02-22T14:08:31.748Z,7.43
2023-02-22T14:11:00.994Z,7.43
2023-02-22T14:13:30.790Z,8.00
2023-02-22T14:16:00.995Z,6.63
2023-02-22T14:18:43.687Z,7.93
2023-02-22T14:21:21.140Z,9.77
2023-02-22T14:23:53.425Z,8.27
2023-02-22T14:26:31.422Z,8.30
2023-02-22T14:29:09.275Z,7.43
2023-02-22T14:31:51.093Z,8.17
2023-02-22T14:34:20.084Z,7.80
2023-02-22T14:37:17.471Z,7.60
2023-02-22T14:39:51.220Z,8.00
2023-02-22T14:42:21.599Z,7.40
2023-02-22T14:44:49.040Z,8.13
2023-02-22T14:47:32.268Z,6.90
2023-02-22T14:50:13.132Z,6.47
2023-02-22T14:52:42.855Z,6.30
2023-02-22T14:55:23.987Z,8.03
2023-02-22T14:58:08.894Z,7.13
2023-02-22T15:00:47.578Z,7.20
2023-02-22T15:03:37.474Z,7.50
2023-02-22T15:06:16.313Z,7.00
2023-02-22T15:08:50.900Z,7.87
2023-02-22T15:11:27.974Z,7.37
2023-02-22T15:13:55.232Z,7.93
2023-02-22T15:16:23.959Z,7.63
2023-02-22T15:18:55.210Z,7.07
2023-02-22T15:21:27.149Z,6.57
2023-02-22T15:24:03.816Z,8.43
2023-02-22T15:26:51.949Z,8.30
2023-02-22T15:29:44.689Z,7.00
2023-02-22T15:32:30.480Z,6.47
2023-02-22T15:35:29.282Z,8.17
2023-02-22T15:38:16.594Z,6.67
2023-02-22T15:43:24.638Z,7.43
2023-02-22T15:45:52.513Z,7.27
2023-02-22T15:48:20.266Z,7.17
2023-02-22T15:51:10.834Z,7.13
2023-02-22T15:53:49.841Z,6.67
2023-02-22T15:56:27.082Z,6.30
2023-02-22T15:59:00.796Z,7.47
2023-02-22T16:01:57.059Z,7.33
2023-02-22T16:04:31.672Z,7.67
2023-02-22T16:07:17.334Z,7.83
2023-02-22T16:09:51.987Z,6.83
2023-02-22T16:12:22.113Z,7.87
2023-02-22T16:14:50.410Z,8.33
2023-02-22T16:17:35.886Z,7.83
2023-02-22T16:20:25.092Z,7.70
2023-02-22T16:22:52.370Z,6.83
2023-02-22T16:25:19.445Z,7.90
2023-02-22T16:28:34.197Z,7.97
2023-02-22T16:31:02.088Z,7.57
2023-02-22T16:33:34.149Z,8.00
2023-02-22T16:36:06.534Z,7.80
2023-02-22T16:38:38.547Z,7.10
2023-02-22T16:41:07.717Z,7.20
2023-02-22T16:43:36.504Z,7.23
2023-02-22T16:46:07.087Z,7.53
2023-02-22T16:48:38.480Z,7.33
2023-02-22T16:51:27.091Z,7.97
2023-02-22T16:53:56.088Z,7.90
2023-02-22T16:56:30.895Z,8.53
2023-02-22T16:59:04.200Z,7.60
2023-02-22T17:01:35.308Z,7.40
2023-02-22T17:04:03.025Z,7.93
2023-02-22T17:06:30.250Z,6.10
2023-02-22T17:08:57.352Z,8.27
2023-02-22T17:11:24.644Z,6.93
2023-02-22T17:13:52.084Z,8.57
2023-02-22T17:16:19.560Z,9.67
2023-02-22T17:18:47.023Z,7.20
2023-02-22T17:21:14.936Z,8.70
2023-02-22T17:23:44.507Z,8.43
2023-02-22T17:26:16.302Z,7.67
2023-02-22T17:28:44.355Z,8.83
2023-02-22T17:31:21.168Z,7.63
2023-02-22T17:36:16.301Z,7.40
2023-02-22T17:38:44.004Z,6.83
2023-02-22T17:41:11.293Z,6.63
2023-02-22T17:43:38.496Z,7.73
2023-02-22T17:46:08.196Z,7.30
2023-02-22T17:48:35.682Z,7.20
2023-02-22T17:51:07.883Z,8.20
2023-02-22T17:53:35.748Z,6.57
2023-02-22T17:56:16.863Z,6.83
2023-02-22T17:58:50.482Z,7.30
2023-02-22T18:01:25.145Z,7.03
2023-02-22T18:03:53.539Z,6.73
2023-02-22T18:06:25.168Z,6.53
2023-02-22T18:08:55.823Z,6.70
2023-02-22T18:11:26.568Z,6.70
2023-02-22T18:13:58.080Z,7.07
2023-02-22T18:16:26.280Z,6.80
2023-02-22T18:18:54.729Z,7.30
2023-02-22T18:21:22.707Z,7.07
2023-02-22T18:23:49.774Z,7.73
2023-02-22T18:26:18.719Z,6.93
2023-02-22T18:28:48.826Z,6.27
2023-02-22T18:31:20.756Z,8.03
2023-02-22T18:33:51.197Z,5.90
2023-02-22T18:36:23.702Z,6.33
2023-02-22T18:38:55.166Z,6.00
2023-02-22T18:41:27.197Z,7.53
2023-02-22T18:43:57.759Z,6.53
2023-02-22T18:46:25.743Z,7.70
2023-02-22T18:48:54.902Z,7.60
2023-02-22T18:51:23.313Z,7.97
2023-02-22T18:53:55.121Z,7.53
2023-02-22T18:56:22.834Z,7.20
2023-02-22T18:58:54.788Z,6.70
2023-02-22T19:01:23.236Z,6.77
2023-02-22T19:03:52.028Z,6.47
2023-02-22T19:06:22.212Z,7.03
2023-02-22T19:08:50.885Z,6.33
2023-02-22T19:11:23.242Z,5.90
2023-02-22T19:13:54.170Z,6.53
2023-02-22T19:16:26.592Z,7.93
2023-02-22T19:18:57.629Z,6.87
2023-02-22T19:21:27.097Z,6.90
2023-02-22T19:24:00.975Z,7.03
2023-02-22T19:26:29.603Z,6.40
2023-02-22T19:28:58.865Z,6.73
2023-02-22T19:31:29.889Z,6.53
2023-02-22T19:34:04.979Z,5.93
2023-02-22T19:36:32.790Z,7.33
2023-02-22T19:39:03.070Z,6.63
2023-02-22T19:41:31.060Z,6.03
2023-02-22T19:43:58.782Z,5.23
2023-02-22T19:46:25.930Z,6.63
2023-02-22T19:48:55.474Z,6.73
2023-02-22T19:51:25.720Z,6.87
2023-02-22T19:53:53.250Z,6.60
2023-02-22T19:56:27.229Z,6.17
2023-02-22T19:58:56.643Z,4.97
2023-02-22T20:01:26.451Z,5.27
2023-02-22T20:03:59.956Z,6.43
2023-02-22T20:06:30.005Z,6.83
2023-02-22T20:08:57.920Z,7.03
2023-02-22T20:11:25.586Z,7.03
2023-02-22T20:13:55.677Z,7.00
2023-02-22T20:16:23.826Z,7.23
2023-02-22T20:18:51.468Z,7.20
2023-02-22T20:21:27.441Z,6.47
2023-02-22T20:23:57.391Z,7.13
2023-02-22T20:26:26.235Z,7.07
2023-02-22T20:28:53.869Z,7.03
2023-02-22T20:31:21.727Z,7.30
2023-02-22T20:33:56.889Z,6.23
2023-02-22T20:36:25.390Z,7.17
2023-02-22T20:38:57.776Z,6.37
2023-02-22T20:41:31.689Z,6.57
2023-02-22T20:44:00.616Z,6.80
2023-02-22T20:46:31.793Z,6.70
2023-02-22T20:49:01.518Z,7.37
2023-02-22T20:51:29.737Z,6.20
2023-02-22T20:54:00.638Z,6.00
2023-02-22T20:56:30.526Z,6.40
2023-02-22T20:59:02.261Z,6.70
2023-02-22T21:01:30.173Z,6.77
2023-02-22T21:04:02.309Z,7.13
2023-02-22T21:06:29.917Z,7.30
2023-02-22T21:09:00.082Z,6.50
2023-02-22T21:11:30.811Z,5.73
2023-02-22T21:13:58.221Z,5.97
2023-02-22T21:16:28.463Z,6.43
2023-02-22T21:19:01.355Z,6.50
2023-02-22T21:21:29.361Z,6.10
2023-02-22T21:23:58.025Z,6.93
2023-02-22T21:26:27.729Z,6.97
2023-02-22T21:28:57.787Z,6.27
2023-02-22T21:31:25.752Z,6.43
2023-02-22T21:33:56.090Z,6.27
2023-02-22T21:36:26.866Z,6.53
2023-02-22T21:38:59.353Z,7.50
2023-02-22T21:41:31.160Z,5.83
2023-02-22T21:43:59.285Z,6.23
2023-02-22T21:46:29.190Z,5.70
2023-02-22T21:48:58.993Z,6.17
2023-02-22T21:51:32.078Z,6.20
2023-02-22T21:54:06.267Z,5.50
2023-02-22T21:56:38.486Z,6.53
2023-02-22T21:59:11.777Z,5.87
2023-02-22T22:01:50.640Z,7.30
2023-02-22T22:04:20.467Z,6.67
2023-02-22T22:06:51.027Z,6.57
2023-02-22T22:09:19.060Z,5.93
2023-02-22T22:11:49.752Z,6.30
2023-02-22T22:14:18.893Z,6.40
2023-02-22T22:16:47.845Z,6.93
2023-02-22T22:19:15.225Z,6.80
2023-02-22T22:21:42.943Z,5.80
2023-02-22T22:24:10.915Z,6.50
2023-02-22T22:26:38.767Z,6.83
2023-02-22T22:29:06.287Z,6.07
2023-02-22T22:31:33.458Z,7.57
2023-02-22T22:34:00.607Z,6.00
2023-02-22T22:36:28.043Z,5.70
2023-02-22T22:38:57.752Z,5.53
2023-02-22T22:41:28.234Z,5.73
2023-02-22T22:43:56.221Z,6.37
2023-02-22T22:46:23.539Z,6.23
2023-02-22T22:48:50.802Z,6.30
2023-02-22T22:51:21.055Z,6.10
2023-02-22T22:53:49.935Z,5.27
2023-02-22T22:56:29.398Z,6.50
2023-02-22T22:58:59.417Z,6.50
2023-02-22T23:01:34.345Z,6.40
2023-02-22T23:04:03.835Z,5.03
2023-02-22T23:06:33.919Z,6.37
2023-02-22T23:09:13.368Z,5.17
2023-02-22T23:11:51.000Z,6.27
2023-02-22T23:14:22.722Z,6.90
2023-02-22T23:16:52.762Z,6.00
2023-02-22T23:19:20.222Z,5.20
2023-02-22T23:21:49.318Z,5.47
2023-02-22T23:24:19.478Z,6.07
2023-02-22T23:26:49.948Z,6.30
2023-02-22T23:29:19.890Z,5.87
2023-02-22T23:31:50.861Z,5.70
2023-02-22T23:34:19.046Z,5.53
2023-02-22T23:36:46.898Z,5.60
2023-02-22T23:39:16.469Z,6.90
2023-02-22T23:41:43.680Z,5.50
2023-02-22T23:44:14.113Z,6.57
2023-02-22T23:46:41.411Z,4.93
2023-02-22T23:49:10.046Z,4.83
2023-02-22T23:51:39.605Z,6.50
2023-02-22T23:54:12.325Z,6.53
2023-02-22T23:56:40.462Z,6.60
2023-02-22T23:59:12.709Z,5.73
